Terminal Aerodrome Forecast
Issued by NWS Charleston, WV

Home | Current Version | Previous Version | Text Only | Print | Product List | Glossary On
Versions: 1 2 3 4 5 6 7 8 9 10 11 12 13 14 15 16 17 18 19 20 21 22 23 24 25
000
FTUS41 KRLX 210303 AAA
TAFBKW
TAF AMD
KBKW 210303Z 2103/2124 16008KT P6SM SCT060
     FM210800 17010G17KT P6SM SCT250
     FM211600 20011G23KT P6SM SCT250
     FM211800 24013G26KT P6SM BKN250
     FM212100 25011G20KT P6SM BKN250
     FM212200 28009G16KT P6SM BKN035=

USA.gov is the U.S. government's official web portal to all federal, state and local government web resources and services.